Time;durP1;ratioP1;P1;durP2;ratioP2;P2;SDS_P1;SDS_P2;PMS_P1;PMS_P2;Temp;Humidity;BMP_temperature;BMP_pressure;BME280_temperature;BME280_humidity;BME280_pressure;Samples;Min_cycle;Max_cycle;Signal;HPM_P1;HPM_P2
2021/09/12 00:01:08;;;;;;;;;29.25;28.00;;;;;21.30;47.54;98532.25;4890162;28;103435;-79
2021/09/12 00:03:35;;;;;;;;;30.25;29.50;;;;;21.31;47.49;98524.81;4884640;28;102869;-79
2021/09/12 00:06:03;;;;;;;;;30.50;28.75;;;;;21.29;47.68;98522.34;4860330;28;102679;-79
2021/09/12 00:08:29;;;;;;;;;28.75;27.50;;;;;21.31;47.91;98524.81;4828458;28;104026;-79
2021/09/12 00:10:56;;;;;;;;;34.25;30.50;;;;;21.30;47.39;98525.91;4882114;28;102625;-79
2021/09/12 00:13:23;;;;;;;;;27.25;26.50;;;;;21.30;47.28;98523.16;4880192;28;102207;-80
2021/09/12 00:15:50;;;;;;;;;29.50;27.75;;;;;21.28;47.28;98523.44;4894535;28;102607;-79
2021/09/12 00:18:17;;;;;;;;;33.75;29.00;;;;;21.27;47.85;98519.03;4887760;28;104293;-79
2021/09/12 00:20:44;;;;;;;;;28.75;27.00;;;;;21.26;48.18;98525.63;4895973;28;102900;-79
2021/09/12 00:23:11;;;;;;;;;29.50;28.25;;;;;21.25;47.78;98529.47;4886987;28;102576;-79
2021/09/12 00:25:39;;;;;;;;;31.25;28.00;;;;;21.25;47.25;98534.97;4886978;28;102824;-79
2021/09/12 00:28:06;;;;;;;;;32.00;29.50;;;;;21.23;47.65;98526.19;4886716;28;103932;-79
2021/09/12 00:30:33;;;;;;;;;31.00;29.50;;;;;21.23;47.39;98530.84;4891837;28;103185;-79
2021/09/12 00:33:00;;;;;;;;;26.25;26.00;;;;;21.23;47.32;98520.69;4889666;28;102709;-79
2021/09/12 00:35:27;;;;;;;;;33.75;29.25;;;;;21.22;47.59;98521.78;4897928;28;105277;-79
2021/09/12 00:37:54;;;;;;;;;29.50;28.25;;;;;21.25;47.14;98529.47;4892075;28;104073;-79
2021/09/12 00:40:22;;;;;;;;;29.50;27.50;;;;;21.23;47.59;98522.59;4882850;28;102620;-79
2021/09/12 00:42:49;;;;;;;;;29.50;27.00;;;;;21.24;47.09;98522.34;4890679;28;102506;-80
2021/09/12 00:45:18;;;;;;;;;28.50;26.75;;;;;21.23;47.26;98514.34;4894324;28;102780;-80
2021/09/12 00:47:46;;;;;;;;;32.00;29.50;;;;;21.20;47.68;98515.75;4874559;28;110173;-80
2021/09/12 00:50:14;;;;;;;;;30.75;27.25;;;;;21.18;47.11;98515.16;4881608;28;102684;-80
2021/09/12 00:52:44;;;;;;;;;32.25;30.25;;;;;21.18;47.58;98523.41;4894062;28;102554;-80
2021/09/12 00:55:11;;;;;;;;;30.00;28.50;;;;;21.18;47.30;98517.91;4886808;28;102720;-80
2021/09/12 00:57:38;;;;;;;;;30.25;28.50;;;;;21.16;46.96;98525.63;4893686;28;104041;-80
2021/09/12 01:00:05;;;;;;;;;29.50;27.75;;;;;21.16;47.08;98519.31;4862927;28;102771;-80
2021/09/12 01:02:32;;;;;;;;;32.50;29.00;;;;;21.14;47.62;98515.97;4838979;28;102662;-80
2021/09/12 01:04:59;;;;;;;;;30.50;29.25;;;;;21.14;47.37;98515.97;4871112;28;102854;-80
2021/09/12 01:07:26;;;;;;;;;28.50;26.50;;;;;21.13;47.32;98520.66;4852019;28;104780;-80
2021/09/12 01:09:53;;;;;;;;;32.00;28.75;;;;;21.14;47.05;98511.31;4839978;28;103095;-80
2021/09/12 01:12:20;;;;;;;;;31.50;28.75;;;;;21.13;47.07;98509.66;4880095;28;102491;-80
2021/09/12 01:14:47;;;;;;;;;30.50;27.50;;;;;21.13;46.83;98509.66;4891450;28;102894;-80
2021/09/12 01:17:14;;;;;;;;;29.50;28.00;;;;;21.13;46.96;98511.56;4894581;28;104255;-80
2021/09/12 01:19:41;;;;;;;;;33.50;28.75;;;;;21.13;46.84;98508.81;4897644;28;103117;-80
2021/09/12 01:22:08;;;;;;;;;30.50;27.50;;;;;21.13;47.40;98519.81;4883366;28;102676;-80
2021/09/12 01:24:37;;;;;;;;;31.25;30.00;;;;;21.11;46.84;98517.34;4882653;28;102810;-80
2021/09/12 01:27:05;;;;;;;;;30.25;28.50;;;;;21.11;47.24;98519.25;4892228;28;106293;-80
2021/09/12 01:29:32;;;;;;;;;34.75;30.75;;;;;21.09;46.67;98514.00;4889546;28;102190;-80
2021/09/12 01:31:59;;;;;;;;;34.75;28.25;;;;;21.10;46.86;98512.94;4885251;28;102695;-80
2021/09/12 01:34:26;;;;;;;;;33.00;30.25;;;;;21.08;47.21;98520.59;4885519;28;102570;-80
2021/09/12 01:36:53;;;;;;;;;32.75;29.50;;;;;21.07;46.95;98520.91;4889207;28;104018;-80
2021/09/12 01:39:20;;;;;;;;;32.75;29.00;;;;;21.06;47.08;98517.31;4874451;28;102598;-80
2021/09/12 01:41:47;;;;;;;;;31.00;28.00;;;;;21.06;47.13;98513.75;4875649;28;102494;-80
2021/09/12 01:44:13;;;;;;;;;29.25;28.00;;;;;21.06;46.71;98508.25;4878664;28;102678;-80
2021/09/12 01:46:46;;;;;;;;;19.75;16.25;;;;;21.06;47.17;98514.56;4889917;28;103845;-80
2021/09/12 01:49:14;;;;;;;;;30.25;28.50;;;;;21.05;46.64;98518.41;4886102;28;104626;-80
2021/09/12 01:51:41;;;;;;;;;34.75;30.25;;;;;21.04;47.06;98514.00;4863833;28;105100;-80
2021/09/12 01:54:08;;;;;;;;;31.50;30.00;;;;;21.03;46.51;98509.59;4892060;28;102689;-80
2021/09/12 01:56:35;;;;;;;;;34.75;32.00;;;;;21.04;46.47;98519.50;4893273;28;104054;-80
2021/09/12 01:59:02;;;;;;;;;33.50;30.75;;;;;21.02;46.44;98516.22;4876326;28;104276;-80
2021/09/12 02:01:29;;;;;;;;;32.75;29.75;;;;;21.02;46.62;98527.22;4892607;28;102315;-80
2021/09/12 02:03:56;;;;;;;;;32.50;30.75;;;;;21.02;46.78;98532.72;4897424;28;102445;-80
2021/09/12 02:06:23;;;;;;;;;33.25;30.00;;;;;21.03;46.26;98531.59;4877816;28;104150;-80
2021/09/12 02:08:50;;;;;;;;;30.75;30.00;;;;;21.02;46.81;98529.97;4890061;28;102761;-80
2021/09/12 02:11:17;;;;;;;;;33.75;30.50;;;;;21.01;46.29;98536.53;4892943;28;102836;-80
2021/09/12 02:13:44;;;;;;;;;32.25;29.75;;;;;20.99;46.35;98529.66;4880984;28;102594;-80
2021/09/12 02:16:11;;;;;;;;;32.50;30.25;;;;;20.97;46.36;98532.69;4893943;28;104062;-80
2021/09/12 02:18:38;;;;;;;;;29.75;28.50;;;;;20.99;46.68;98530.47;4894847;28;102451;-80
2021/09/12 02:21:05;;;;;;;;;33.25;29.00;;;;;20.98;46.54;98526.09;4883725;28;102493;-80
2021/09/12 02:23:32;;;;;;;;;33.50;30.75;;;;;21.00;46.30;98525.81;4885792;28;102694;-80
2021/09/12 02:25:59;;;;;;;;;29.50;28.50;;;;;20.97;46.26;98526.34;4885536;28;104163;-80
2021/09/12 02:28:26;;;;;;;;;28.75;28.00;;;;;20.96;46.78;98525.53;4885937;28;102249;-80
2021/09/12 02:30:53;;;;;;;;;30.75;28.50;;;;;20.95;46.19;98523.88;4891095;28;102391;-80
2021/09/12 02:33:20;;;;;;;;;30.25;27.00;;;;;20.94;46.46;98527.69;4902965;28;102544;-80
2021/09/12 02:35:46;;;;;;;;;33.25;30.50;;;;;20.91;46.56;98518.09;4877647;28;108894;-80
2021/09/12 02:38:13;;;;;;;;;32.75;30.25;;;;;20.90;46.66;98521.94;4886111;28;102626;-80
2021/09/12 02:40:40;;;;;;;;;32.75;29.75;;;;;20.90;46.76;98518.34;4875090;28;102669;-80
2021/09/12 02:43:07;;;;;;;;;29.75;27.75;;;;;20.88;46.38;98521.38;4879649;28;102757;-80
2021/09/12 02:45:34;;;;;;;;;28.00;27.50;;;;;20.87;46.69;98524.41;4899054;28;104099;-80
2021/09/12 02:48:01;;;;;;;;;32.25;29.75;;;;;20.86;46.26;98528.22;4889860;28;111619;-80
2021/09/12 02:50:28;;;;;;;;;30.25;29.75;;;;;20.85;46.20;98526.56;4891532;28;102714;-80
2021/09/12 02:52:55;;;;;;;;;34.25;29.50;;;;;20.86;46.65;98533.72;4882950;28;105136;-80
2021/09/12 02:55:22;;;;;;;;;33.75;30.00;;;;;20.84;46.33;98533.19;4881866;28;104048;-80
2021/09/12 02:57:49;;;;;;;;;31.25;29.50;;;;;20.83;46.16;98526.88;4897499;28;102969;-80
2021/09/12 03:00:16;;;;;;;;;37.25;30.25;;;;;20.84;46.52;98533.19;4890145;28;102733;-80
2021/09/12 03:02:43;;;;;;;;;38.25;31.25;;;;;20.82;46.09;98524.38;4885451;28;102341;-80
2021/09/12 03:05:10;;;;;;;;;34.25;30.00;;;;;20.79;46.57;98523.00;4884215;28;105147;-80
2021/09/12 03:07:37;;;;;;;;;28.00;26.50;;;;;20.80;46.42;98527.38;4888309;28;102254;-80
2021/09/12 03:10:04;;;;;;;;;36.75;31.50;;;;;20.77;46.42;98522.44;4886695;28;102737;-80
2021/09/12 03:12:31;;;;;;;;;32.00;31.00;;;;;20.77;46.12;98524.34;4887754;28;105328;-80
2021/09/12 03:14:58;;;;;;;;;31.75;29.00;;;;;20.75;46.48;98521.06;4894583;28;104149;-80
2021/09/12 03:17:25;;;;;;;;;25.50;24.50;;;;;20.74;46.33;98519.41;4892426;28;102740;-80
2021/09/12 03:19:51;;;;;;;;;32.75;30.00;;;;;20.74;46.41;98519.41;4893402;28;102697;-80
2021/09/12 03:22:18;;;;;;;;;29.25;28.50;;;;;20.73;46.01;98518.56;4887813;28;102694;-80
2021/09/12 03:24:45;;;;;;;;;33.75;29.75;;;;;20.74;46.27;98522.16;4888409;28;104060;-80
2021/09/12 03:27:12;;;;;;;;;32.25;29.75;;;;;20.74;46.00;98530.38;4897006;28;102616;-80
2021/09/12 03:29:39;;;;;;;;;33.25;30.50;;;;;20.75;46.18;98529.31;4879318;28;102621;-80
2021/09/12 03:32:06;;;;;;;;;32.75;31.25;;;;;20.75;45.89;98532.06;4894633;28;102592;-80
2021/09/12 03:34:33;;;;;;;;;32.50;29.00;;;;;20.73;45.87;98526.81;4878690;28;104177;-80
2021/09/12 03:37:00;;;;;;;;;35.00;30.75;;;;;20.74;45.95;98527.66;4890160;28;102508;-80
2021/09/12 03:39:26;;;;;;;;;30.00;28.50;;;;;20.70;45.77;98527.34;4895227;28;102797;-80
2021/09/12 03:41:53;;;;;;;;;36.00;30.25;;;;;20.69;45.97;98527.63;4879051;28;102254;-80
2021/09/12 03:44:20;;;;;;;;;31.75;29.50;;;;;20.68;45.61;98526.78;4878138;28;104097;-80
2021/09/12 03:46:47;;;;;;;;;33.00;30.25;;;;;20.69;45.90;98531.19;4892607;28;102501;-80
2021/09/12 03:49:14;;;;;;;;;34.50;30.50;;;;;20.66;45.66;98528.16;4886230;28;102376;-80
2021/09/12 03:51:41;;;;;;;;;31.00;29.25;;;;;20.66;45.92;98530.91;4886674;28;102488;-80
2021/09/12 03:54:08;;;;;;;;;31.50;29.75;;;;;20.65;45.93;98532.00;4879434;28;104613;-80
2021/09/12 03:56:34;;;;;;;;;34.50;30.50;;;;;20.65;45.88;98532.00;4878880;28;102839;-80
2021/09/12 03:59:01;;;;;;;;;33.25;29.75;;;;;20.64;45.86;98535.84;4878797;28;102473;-80
2021/09/12 04:01:28;;;;;;;;;37.75;31.00;;;;;20.63;45.69;98534.16;4885132;28;102743;-80
2021/09/12 04:03:55;;;;;;;;;33.50;30.25;;;;;20.64;45.55;98533.09;4875473;28;104044;-80
2021/09/12 04:06:22;;;;;;;;;29.25;27.50;;;;;20.64;45.65;98522.09;4877715;28;104025;-80
2021/09/12 04:08:49;;;;;;;;;32.00;30.00;;;;;20.62;45.77;98527.03;4897835;28;103232;-80
2021/09/12 04:11:16;;;;;;;;;32.50;29.25;;;;;20.60;45.50;98516.31;4874348;28;102430;-80
2021/09/12 04:13:43;;;;;;;;;30.50;30.00;;;;;20.59;45.93;98513.81;4879849;28;104191;-80
2021/09/12 04:16:10;;;;;;;;;32.00;29.75;;;;;20.59;45.25;98519.31;4889281;28;102260;-80
2021/09/12 04:18:37;;;;;;;;;33.50;30.75;;;;;20.57;45.50;98521.53;4884004;28;105793;-79
2021/09/12 04:21:04;;;;;;;;;28.00;28.00;;;;;20.56;45.57;98517.13;4881818;28;103625;-80
2021/09/12 04:23:31;;;;;;;;;29.25;28.25;;;;;20.54;45.28;98509.13;4890297;28;104064;-80
2021/09/12 04:25:57;;;;;;;;;34.50;30.25;;;;;20.54;45.25;98522.03;4878180;28;106130;-80
2021/09/12 04:28:24;;;;;;;;;30.75;27.75;;;;;20.53;45.45;98525.91;4884970;28;102616;-80
2021/09/12 04:30:51;;;;;;;;;29.25;27.75;;;;;20.52;45.34;98530.56;4902020;28;102524;-80
2021/09/12 04:33:20;;;;;;;;;29.25;28.75;;;;;20.52;45.55;98527.00;4881850;28;108012;-80
2021/09/12 04:35:47;;;;;;;;;35.50;31.75;;;;;20.51;45.68;98533.56;4886892;28;102455;-80
2021/09/12 04:38:14;;;;;;;;;29.75;27.75;;;;;20.49;45.50;98534.66;4892714;28;102143;-80
2021/09/12 04:40:41;;;;;;;;;36.00;30.75;;;;;20.51;45.32;98536.31;4883319;28;102899;-80
2021/09/12 04:43:07;;;;;;;;;33.50;30.00;;;;;20.49;45.39;98542.91;4882504;28;104050;-80
2021/09/12 04:45:34;;;;;;;;;33.75;29.50;;;;;20.50;45.22;98532.75;4889358;28;103345;-80
2021/09/12 04:48:01;;;;;;;;;30.50;29.25;;;;;20.49;45.26;98531.91;4885656;28;103782;-80
2021/09/12 04:50:28;;;;;;;;;33.50;28.75;;;;;20.47;45.45;98538.78;4890460;28;102664;-80
2021/09/12 04:52:55;;;;;;;;;34.00;29.75;;;;;20.45;45.26;98528.03;4892008;28;104203;-80
2021/09/12 04:55:22;;;;;;;;;30.00;28.25;;;;;20.46;45.78;98532.44;4887851;28;102563;-80
2021/09/12 04:57:49;;;;;;;;;29.25;26.00;;;;;20.46;45.22;98543.44;4901097;28;102355;-80
2021/09/12 05:00:16;;;;;;;;;26.25;26.00;;;;;20.44;45.47;98540.13;4883401;28;102651;-80
2021/09/12 05:02:43;;;;;;;;;25.50;25.00;;;;;20.42;45.27;98553.31;4891439;28;104487;-80
2021/09/12 05:05:10;;;;;;;;;31.00;29.50;;;;;20.42;45.08;98549.72;4872654;28;102579;-80
2021/09/12 05:07:37;;;;;;;;;33.00;28.00;;;;;20.40;45.57;98540.91;4875334;28;111250;-80
2021/09/12 05:10:05;;;;;;;;;33.00;29.50;;;;;20.40;45.32;98541.75;4881474;28;104594;-80
2021/09/12 05:12:31;;;;;;;;;32.25;29.25;;;;;20.42;45.38;98542.31;4890537;28;104121;-80
2021/09/12 05:14:58;;;;;;;;;32.00;30.25;;;;;20.41;45.28;98545.31;4883484;28;105405;-80
2021/09/12 05:17:25;;;;;;;;;29.25;27.50;;;;;20.41;45.08;98553.56;4889713;28;102731;-80
2021/09/12 05:19:52;;;;;;;;;30.00;29.50;;;;;20.38;45.01;98560.44;4894467;28;102285;-80
2021/09/12 05:22:19;;;;;;;;;30.00;29.00;;;;;20.38;45.39;98554.94;4874332;28;108986;-80
2021/09/12 05:24:46;;;;;;;;;31.00;29.25;;;;;20.36;45.61;98548.88;4887334;28;102676;-80
2021/09/12 05:27:13;;;;;;;;;26.75;25.50;;;;;20.38;45.47;98554.94;4883378;28;102724;-80
2021/09/12 05:29:39;;;;;;;;;30.00;28.25;;;;;20.39;45.42;98555.75;4884305;28;102824;-80
2021/09/12 05:32:06;;;;;;;;;29.75;27.75;;;;;20.38;45.10;98554.09;4886796;28;103891;-80
2021/09/12 05:34:33;;;;;;;;;32.00;28.50;;;;;20.37;45.12;98552.44;4901376;28;104656;-80
2021/09/12 05:37:00;;;;;;;;;33.75;29.00;;;;;20.35;45.53;98555.44;4888888;28;104210;-80
2021/09/12 05:39:27;;;;;;;;;33.75;29.00;;;;;20.33;45.70;98560.38;4902989;28;102768;-80
2021/09/12 05:41:54;;;;;;;;;26.50;26.25;;;;;20.33;45.66;98557.66;4881986;28;104002;-80
2021/09/12 05:44:21;;;;;;;;;28.50;27.50;;;;;20.31;45.23;98557.06;4899658;28;102873;-79
2021/09/12 05:46:51;;;;;;;;;26.25;26.25;;;;;20.34;45.28;98566.72;4900424;28;103303;-80
2021/09/12 05:49:19;;;;;;;;;31.50;29.50;;;;;20.33;45.57;98557.66;4889516;28;102477;-80
2021/09/12 05:51:46;;;;;;;;;27.75;25.75;;;;;20.34;45.53;98555.72;4881607;28;104041;-80
2021/09/12 05:54:13;;;;;;;;;32.75;29.50;;;;;20.33;45.49;98549.41;4897901;28;102599;-80
2021/09/12 05:56:40;;;;;;;;;28.75;28.25;;;;;20.33;45.75;98554.91;4881855;28;102579;-80
2021/09/12 05:59:07;;;;;;;;;33.50;29.50;;;;;20.33;45.54;98554.91;4893333;28;102191;-80
2021/09/12 06:01:34;;;;;;;;;31.50;29.25;;;;;20.34;45.85;98556.56;4896147;28;104074;-80
2021/09/12 06:04:02;;;;;;;;;27.00;25.25;;;;;20.32;45.66;98552.41;4878789;28;102540;-80
2021/09/12 06:06:29;;;;;;;;;31.00;27.75;;;;;20.33;45.60;98557.66;4893169;28;110111;-80
2021/09/12 06:08:56;;;;;;;;;29.50;28.50;;;;;20.31;46.10;98546.09;4890095;28;102533;-80
2021/09/12 06:11:22;;;;;;;;;29.00;26.75;;;;;20.30;45.84;98547.19;4890495;28;103836;-80
2021/09/12 06:13:49;;;;;;;;;31.00;27.00;;;;;20.30;46.04;98552.69;4880419;28;102161;-80
2021/09/12 06:16:16;;;;;;;;;26.25;25.00;;;;;20.30;46.28;98549.94;4890491;28;102736;-80
2021/09/12 06:18:43;;;;;;;;;26.25;24.00;;;;;20.31;45.93;98556.25;4881895;28;103644;-80
2021/09/12 06:21:10;;;;;;;;;30.75;28.50;;;;;20.31;46.18;98562.56;4885171;28;104412;-80
2021/09/12 06:23:37;;;;;;;;;33.25;28.00;;;;;20.33;46.29;98554.91;4888039;28;102711;-80
2021/09/12 06:26:04;;;;;;;;;30.75;28.00;;;;;20.32;46.33;98568.88;4878968;28;103412;-80
2021/09/12 06:28:31;;;;;;;;;25.50;25.00;;;;;20.32;46.08;98572.47;4892596;28;102427;-80
2021/09/12 06:30:59;;;;;;;;;28.75;24.00;;;;;20.32;46.13;98569.72;4880341;28;103956;-80
2021/09/12 06:33:26;;;;;;;;;30.50;25.50;;;;;20.33;46.39;98571.38;4888014;28;102414;-80
2021/09/12 06:35:53;;;;;;;;;27.25;24.50;;;;;20.33;46.08;98574.13;4895166;28;102186;-80
2021/09/12 06:38:20;;;;;;;;;25.75;23.50;;;;;20.32;46.53;98569.72;4883870;28;102690;-80
2021/09/12 06:40:47;;;;;;;;;27.50;26.25;;;;;20.32;46.38;98572.47;4883157;28;104211;-80
2021/09/12 06:43:14;;;;;;;;;26.25;23.00;;;;;20.31;46.49;98572.72;4884659;28;104105;-80
2021/09/12 06:45:41;;;;;;;;;26.75;23.50;;;;;20.32;46.40;98569.72;4886563;28;102483;-80
2021/09/12 06:48:08;;;;;;;;;30.50;26.00;;;;;20.33;46.74;98574.13;4888689;28;102942;-80
2021/09/12 06:50:35;;;;;;;;;30.25;28.00;;;;;20.36;46.64;98575.50;4886176;28;104082;-80
2021/09/12 06:53:02;;;;;;;;;26.25;24.50;;;;;20.35;46.81;98574.66;4889705;28;102523;-80
2021/09/12 06:55:29;;;;;;;;;24.75;23.75;;;;;20.37;46.93;98572.50;4884288;28;105608;-79
2021/09/12 06:57:56;;;;;;;;;29.50;25.50;;;;;20.39;46.59;98575.81;4877326;28;102340;-80
2021/09/12 07:00:23;;;;;;;;;24.50;22.75;;;;;20.39;46.71;98578.56;4888421;28;104121;-80
2021/09/12 07:02:53;;;;;;;;;27.25;24.75;;;;;20.40;46.49;98571.97;4880936;28;102437;-80
2021/09/12 07:05:21;;;;;;;;;26.50;24.75;;;;;20.40;46.67;98577.44;4888348;28;102697;-80
2021/09/12 07:07:48;;;;;;;;;26.00;24.50;;;;;20.40;46.59;98582.94;4892408;28;102714;-80
2021/09/12 07:10:15;;;;;;;;;23.75;23.25;;;;;20.41;47.00;98579.13;4893185;28;104258;-80
2021/09/12 07:12:41;;;;;;;;;28.00;27.50;;;;;20.41;47.12;98587.34;4885659;28;102477;-80
2021/09/12 07:15:09;;;;;;;;;25.50;25.25;;;;;20.40;46.97;98582.94;4881606;28;104332;-80
2021/09/12 07:17:36;;;;;;;;;28.00;26.50;;;;;20.42;46.98;98582.69;4890540;28;102652;-80
2021/09/12 07:20:03;;;;;;;;;26.00;24.00;;;;;20.43;46.90;98587.09;4889531;28;104094;-80
2021/09/12 07:22:30;;;;;;;;;25.75;25.25;;;;;20.43;47.48;98578.84;4884083;28;101986;-80
2021/09/12 07:24:57;;;;;;;;;26.50;22.75;;;;;20.45;47.24;98577.47;4870050;28;103162;-80
2021/09/12 07:27:23;;;;;;;;;24.75;23.75;;;;;20.47;47.23;98579.97;4890486;28;102531;-80
2021/09/12 07:30:03;;;;;;;;;22.75;20.75;;;;;20.48;47.29;98585.22;4888955;28;109155;-80
2021/09/12 07:32:30;;;;;;;;;22.00;21.25;;;;;20.50;47.25;98582.19;4885378;28;102604;-80
2021/09/12 07:34:57;;;;;;;;;26.50;24.50;;;;;20.52;47.41;98591.00;4889866;28;102530;-80
2021/09/12 07:37:23;;;;;;;;;26.25;24.00;;;;;20.54;47.58;98590.72;4893518;28;102098;-80
2021/09/12 07:39:50;;;;;;;;;23.25;21.25;;;;;20.54;47.78;98594.28;4887750;28;109485;-80
2021/09/12 07:42:18;;;;;;;;;24.75;22.75;;;;;20.54;47.21;98587.97;4879105;28;102727;-80
2021/09/12 07:44:48;;;;;;;;;23.75;23.00;;;;;20.54;47.80;98597.03;4877932;28;102411;-80
2021/09/12 07:47:16;;;;;;;;;28.50;25.25;;;;;20.51;52.58;98603.06;4865440;28;103763;-79
2021/09/12 07:49:42;;;;;;;;;24.50;23.00;;;;;20.52;50.92;98590.16;4875502;28;104269;-79
2021/09/12 07:52:10;;;;;;;;;22.00;20.00;;;;;20.53;49.39;98587.16;4879750;28;102979;-79
2021/09/12 07:54:37;;;;;;;;;24.50;23.50;;;;;20.56;48.91;98594.03;4873084;28;102657;-79
2021/09/12 07:57:08;;;;;;;;;23.75;21.00;;;;;20.60;49.17;98595.16;4881848;28;102420;-79
2021/09/12 07:59:35;;;;;;;;;23.25;20.75;;;;;20.60;48.90;98595.16;4875258;28;104142;-79
2021/09/12 08:02:02;;;;;;;;;22.75;22.25;;;;;20.63;48.84;98592.69;4869379;28;103609;-79
2021/09/12 08:04:31;;;;;;;;;24.50;22.75;;;;;20.65;48.84;98597.94;4873249;28;104821;-79
2021/09/12 08:06:57;;;;;;;;;15.25;13.25;;;;;20.66;48.42;98591.34;4887425;28;103808;-79
2021/09/12 08:09:24;;;;;;;;;26.75;22.50;;;;;20.67;49.01;98593.03;4884145;28;104187;-79
2021/09/12 08:11:51;;;;;;;;;26.25;23.00;;;;;20.69;48.88;98590.81;4878956;28;102592;-79
2021/09/12 08:14:18;;;;;;;;;21.75;21.50;;;;;20.70;48.67;98597.97;4873974;28;102568;-79
2021/09/12 08:16:45;;;;;;;;;21.50;21.25;;;;;20.70;48.84;98590.56;4881567;28;102634;-79
2021/09/12 08:19:12;;;;;;;;;25.50;23.25;;;;;20.72;48.75;98591.09;4896170;28;104082;-79
2021/09/12 08:21:42;;;;;;;;;23.25;22.50;;;;;20.72;48.92;98596.59;4876752;28;102212;-79
2021/09/12 08:24:09;;;;;;;;;26.00;23.00;;;;;20.73;49.25;98592.75;4878675;28;102270;-79
2021/09/12 08:26:36;;;;;;;;;19.75;19.50;;;;;20.75;49.01;98592.50;4897766;28;103768;-79
2021/09/12 08:29:03;;;;;;;;;6.00;4.50;;;;;20.75;48.74;98590.59;4879555;28;104317;-79
2021/09/12 08:31:30;;;;;;;;;21.25;21.00;;;;;20.77;48.74;98593.06;4887231;28;102762;-79
2021/09/12 08:33:57;;;;;;;;;23.25;21.75;;;;;20.78;48.40;98591.97;4892032;28;103131;-79
2021/09/12 08:36:24;;;;;;;;;23.00;21.00;;;;;20.79;48.72;98586.22;4897506;28;102570;-79
2021/09/12 08:38:51;;;;;;;;;25.00;20.67;;;;;20.81;48.42;98574.94;4874142;28;111403;-79
2021/09/12 08:41:19;;;;;;;;;22.33;21.00;;;;;20.82;48.12;98590.34;4894366;28;102454;-79
2021/09/12 08:43:46;;;;;;;;;21.75;21.25;;;;;20.83;48.27;98581.00;4884006;28;102805;-79
2021/09/12 08:46:14;;;;;;;;;21.75;21.00;;;;;20.84;48.59;98582.66;4881504;28;102597;-79
2021/09/12 08:48:41;;;;;;;;;21.00;21.00;;;;;20.85;48.11;98585.13;4890378;28;105389;-79
2021/09/12 08:51:08;;;;;;;;;23.50;23.00;;;;;20.86;48.48;98578.53;4879918;28;102637;-79
2021/09/12 08:53:35;;;;;;;;;21.33;19.67;;;;;20.86;48.05;98581.28;4879649;28;102820;-79
2021/09/12 08:56:02;;;;;;;;;20.50;20.50;;;;;20.88;48.40;98583.78;4905373;28;103385;-79
2021/09/12 08:58:29;;;;;;;;;21.33;20.33;;;;;20.88;48.52;98584.59;4881801;28;104088;-79
2021/09/12 09:00:59;;;;;;;;;22.00;19.00;;;;;20.90;48.45;98587.91;4893416;28;102736;-79
2021/09/12 09:04:13;;;;;;;;;22.67;21.00;;;;;20.90;48.08;98592.56;4891386;28;102521;-79
2021/09/12 09:06:40;;;;;;;;;22.00;21.50;;;;;20.91;48.13;98585.97;4882985;28;102764;-79
2021/09/12 09:09:07;;;;;;;;;22.33;21.33;;;;;20.93;48.09;98592.03;4887188;28;103794;-79
2021/09/12 09:11:39;;;;;;;;;20.33;19.67;;;;;20.94;48.23;98590.94;4894343;28;102612;-79
2021/09/12 09:14:19;;;;;;;;;20.33;19.67;;;;;20.96;48.35;98593.41;4878950;28;102624;-79
2021/09/12 09:16:48;;;;;;;;;20.00;18.67;;;;;20.95;48.27;98592.59;4887863;28;102728;-79
2021/09/12 09:19:15;;;;;;;;;21.67;20.67;;;;;20.96;48.08;98590.66;4893114;28;104155;-79
2021/09/12 09:21:48;;;;;;;;;21.25;19.75;;;;;20.97;48.53;98595.09;4895255;28;102196;-79
2021/09/12 09:24:22;;;;;;;;;20.25;20.00;;;;;20.97;48.55;98598.66;4887423;28;102509;-79
2021/09/12 09:26:54;;;;;;;;;18.33;17.67;;;;;20.98;48.50;98594.81;4897996;28;108226;-79
2021/09/12 09:29:23;;;;;;;;;20.33;20.00;;;;;20.98;48.24;98597.56;4890911;28;103815;-79
2021/09/12 09:32:12;;;;;;;;;16.00;16.00;;;;;20.99;48.44;98596.44;4886916;28;103316;-79
2021/09/12 09:34:40;;;;;;;;;21.00;20.50;;;;;21.00;48.30;98597.28;4879183;28;102488;-79
2021/09/12 09:37:14;;;;;;;;;18.67;18.33;;;;;21.02;48.09;98590.44;4890314;28;104261;-80
2021/09/12 09:39:44;;;;;;;;;20.33;18.67;;;;;21.02;48.23;98595.94;4888217;28;104065;-80
2021/09/12 09:42:37;;;;;;;;;22.33;20.00;;;;;21.03;48.07;98588.53;4895472;28;102620;-80
2021/09/12 09:45:05;;;;;;;;;21.75;20.75;;;;;21.04;48.59;98590.97;4894555;28;103014;-80
2021/09/12 09:47:32;;;;;;;;;20.00;18.33;;;;;21.05;48.36;98597.31;4891984;28;102584;-80
2021/09/12 09:50:17;;;;;;;;;20.33;19.00;;;;;21.04;47.96;98588.22;4888120;28;104206;-81
2021/09/12 09:52:46;;;;;;;;;18.33;18.33;;;;;21.05;48.34;98583.56;4893543;28;102446;-80
2021/09/12 09:55:15;;;;;;;;;19.33;19.00;;;;;21.04;48.53;98588.22;4885235;28;102649;-80
2021/09/12 09:57:47;;;;;;;;;20.67;19.67;;;;;21.06;48.65;98591.56;4893150;28;103555;-80
2021/09/12 10:00:14;;;;;;;;;20.00;18.67;;;;;21.07;48.28;98587.72;4881320;28;104367;-81
2021/09/12 10:02:41;;;;;;;;;19.67;18.67;;;;;21.07;48.22;98587.72;4885658;28;102675;-80
2021/09/12 10:05:10;;;;;;;;;14.00;13.33;;;;;21.08;48.39;98577.50;4886399;28;102617;-80
2021/09/12 10:07:38;;;;;;;;;19.00;18.67;;;;;21.09;48.45;98582.75;4891992;28;102520;-80
2021/09/12 10:10:15;;;;;;;;;19.00;17.67;;;;;21.09;48.56;98579.19;4887908;28;104496;-80
2021/09/12 10:12:56;;;;;;;;;22.50;21.50;;;;;21.10;48.71;98578.91;4886678;28;102572;-80
2021/09/12 10:15:25;;;;;;;;;22.00;21.67;;;;;21.10;48.49;98569.84;4927057;28;103403;-80
2021/09/12 10:17:52;;;;;;;;;18.33;18.33;;;;;21.12;48.21;98568.47;4876087;28;102729;-80
2021/09/12 10:20:24;;;;;;;;;18.33;16.33;;;;;21.13;48.69;98570.16;4891830;28;104037;-81
2021/09/12 10:22:57;;;;;;;;;20.33;18.67;;;;;21.14;49.51;98571.81;4885820;28;102681;-82
2021/09/12 10:25:34;;;;;;;;;20.00;18.00;;;;;21.13;48.88;98563.81;4876954;28;104717;-82
2021/09/12 10:28:03;;;;;;;;;21.00;18.00;;;;;21.16;48.42;98568.81;4889549;28;105043;-82
2021/09/12 10:30:42;;;;;;;;;22.00;17.00;;;;;21.14;48.65;98562.72;4891379;28;104058;-82
2021/09/12 10:33:13;;;;;;;;;22.67;18.67;;;;;21.16;48.24;98564.13;4889524;28;102680;-82
2021/09/12 10:35:45;;;;;;;;;22.00;20.67;;;;;21.18;48.29;98559.16;4894635;28;103397;-82
2021/09/12 10:38:14;;;;;;;;;19.00;17.67;;;;;21.21;48.61;98549.53;4894060;28;104059;-81
2021/09/12 10:40:49;;;;;;;;;20.33;18.00;;;;;21.21;48.24;98555.88;4888373;28;104314;-82
2021/09/12 10:43:25;;;;;;;;;18.67;18.67;;;;;21.24;48.48;98543.53;4883431;28;102684;-81
2021/09/12 10:46:01;;;;;;;;;17.33;16.00;;;;;21.25;48.47;98548.72;4889718;28;103135;-82
2021/09/12 10:48:37;;;;;;;;;19.33;18.00;;;;;21.27;48.65;98543.78;4884433;28;103205;-81
2021/09/12 10:51:20;;;;;;;;;18.33;16.67;;;;;21.27;48.56;98546.53;4893907;28;109657;-81
2021/09/12 10:53:50;;;;;;;;;19.67;18.00;;;;;21.29;48.76;98551.78;4880359;28;102771;-81
2021/09/12 10:56:17;;;;;;;;;19.00;17.33;;;;;21.30;48.97;98537.75;4890050;28;102505;-82
2021/09/12 10:58:52;;;;;;;;;18.67;16.33;;;;;21.30;48.43;98546.00;4892575;28;102622;-82
2021/09/12 11:01:37;;;;;;;;;18.33;17.33;;;;;21.31;48.67;98538.56;4891164;28;104080;-82
2021/09/12 11:04:05;;;;;;;;;19.00;18.00;;;;;21.34;49.01;98543.53;4883334;28;104297;-83
2021/09/12 11:06:37;;;;;;;;;14.33;14.33;;;;;21.42;50.59;98531.19;4892694;28;103130;-83
2021/09/12 11:09:05;;;;;;;;;13.67;13.33;;;;;21.49;53.86;98529.81;4893055;28;102599;-83
2021/09/12 11:11:32;;;;;;;;;15.00;12.67;;;;;21.56;56.07;98529.53;4880677;28;104153;-83
2021/09/12 11:13:59;;;;;;;;;15.00;14.67;;;;;21.64;55.53;98527.06;4883649;28;102335;-83